Time;durP1;ratioP1;P1;durP2;ratioP2;P2;SDS_P1;SDS_P2;PMS_P1;PMS_P2;Temp;Humidity;BMP_temperature;BMP_pressure;BME280_temperature;BME280_humidity;BME280_pressure;Samples;Min_cycle;Max_cycle;Signal;HPM_P1;HPM_P2
2022/09/06 00:01:16;;;;;;;4.88;3.67;;;20.40;94.80;;;;;;5102423;28;20047;-48
2022/09/06 00:03:43;;;;;;;6.15;3.60;;;20.40;94.80;;;;;;5101075;28;20493;-50
2022/09/06 00:06:14;;;;;;;5.13;3.80;;;20.40;95.00;;;;;;5104167;28;20543;-50
2022/09/06 00:08:41;;;;;;;4.43;3.83;;;20.30;95.00;;;;;;5099120;28;20081;-50
2022/09/06 00:11:07;;;;;;;6.13;3.88;;;20.30;94.90;;;;;;5099869;28;20544;-49
2022/09/06 00:13:33;;;;;;;4.78;3.97;;;20.30;95.00;;;;;;5102911;28;20043;-50
2022/09/06 00:16:11;;;;;;;4.85;3.90;;;20.30;95.30;;;;;;5098322;28;20043;-51
2022/09/06 00:18:37;;;;;;;4.20;3.90;;;20.30;95.40;;;;;;5101343;28;20039;-52
2022/09/06 00:21:11;;;;;;;6.03;4.25;;;20.30;95.30;;;;;;5103227;28;20052;-48
2022/09/06 00:23:37;;;;;;;5.05;3.78;;;20.30;95.30;;;;;;5103586;28;20042;-52
2022/09/06 00:26:03;;;;;;;6.18;3.72;;;20.30;95.10;;;;;;5100784;28;20393;-51
2022/09/06 00:28:29;;;;;;;5.00;4.22;;;20.20;95.10;;;;;;5105567;28;20052;-50
2022/09/06 00:30:55;;;;;;;4.43;3.80;;;20.10;95.60;;;;;;5104515;28;20473;-52
2022/09/06 00:33:21;;;;;;;6.07;3.92;;;20.00;95.80;;;;;;5103953;28;20554;-48
2022/09/06 00:35:48;;;;;;;4.32;3.80;;;19.90;95.80;;;;;;5103776;28;20044;-49
2022/09/06 00:38:13;;;;;;;7.03;4.72;;;20.00;95.40;;;;;;5103738;28;20071;-49
2022/09/06 00:40:39;;;;;;;5.03;4.20;;;19.90;95.50;;;;;;5103138;28;20079;-49
2022/09/06 00:43:05;;;;;;;5.20;3.75;;;19.90;95.30;;;;;;5100483;28;20060;-51
2022/09/06 00:45:31;;;;;;;5.97;3.88;;;19.90;95.60;;;;;;5101037;28;21556;-51
2022/09/06 00:47:58;;;;;;;5.78;3.83;;;19.90;95.70;;;;;;5081957;28;20093;-54
2022/09/06 00:50:25;;;;;;;7.05;4.68;;;19.80;95.60;;;;;;5099561;28;20040;-48
2022/09/06 00:52:52;;;;;;;4.10;3.70;;;19.80;96.00;;;;;;5101056;28;20542;-50
2022/09/06 00:55:19;;;;;;;4.40;4.00;;;19.70;96.10;;;;;;5102825;28;20118;-48
2022/09/06 00:57:49;;;;;;;5.28;4.60;;;19.80;96.10;;;;;;5101534;28;20032;-51
2022/09/06 01:00:17;;;;;;;6.28;4.43;;;19.80;96.30;;;;;;5097969;28;20074;-48
2022/09/06 01:02:42;;;;;;;5.30;4.40;;;19.80;96.50;;;;;;5102023;28;20130;-51
2022/09/06 01:05:09;;;;;;;6.28;4.20;;;19.90;96.60;;;;;;5100543;28;20119;-49
2022/09/06 01:08:20;;;;;;;8.65;4.30;;;19.90;96.60;;;;;;5097945;28;20437;-50
2022/09/06 01:10:54;;;;;;;5.22;4.07;;;19.90;96.70;;;;;;5061697;28;20481;-50
2022/09/06 01:13:47;;;;;;;4.28;3.97;;;19.90;96.60;;;;;;5099354;28;21564;-48
2022/09/06 01:16:34;;;;;;;5.40;3.97;;;19.90;96.70;;;;;;5099612;28;20051;-47
2022/09/06 01:19:03;;;;;;;6.78;4.07;;;19.90;96.80;;;;;;5099126;28;20366;-49
2022/09/06 01:21:49;;;;;;;6.65;4.45;;;19.90;97.10;;;;;;5103049;28;20042;-50
2022/09/06 01:24:40;;;;;;;4.97;3.80;;;19.90;97.10;;;;;;5078351;28;20470;-52
2022/09/06 01:27:38;;;;;;;5.78;4.15;;;19.90;97.00;;;;;;5086662;28;20113;-51
2022/09/06 01:30:11;;;;;;;4.70;4.30;;;19.90;97.00;;;;;;5086123;28;20067;-53
2022/09/06 01:33:01;;;;;;;5.28;4.78;;;19.80;97.00;;;;;;5100892;28;20040;-51
2022/09/06 01:35:48;;;;;;;7.63;4.45;;;19.90;97.00;;;;;;5078294;28;20135;-52
2022/09/06 01:38:14;;;;;;;;;;;19.80;97.10;;;;;;5101024;28;20505;-52
2022/09/06 01:40:39;;;;;;;5.72;4.40;;;19.80;97.40;;;;;;5082596;28;19965;-52
2022/09/06 01:43:08;;;;;;;6.45;4.38;;;19.80;97.30;;;;;;5101317;28;20109;-53
2022/09/06 01:45:51;;;;;;;5.68;4.32;;;19.80;97.20;;;;;;5101762;28;20093;-52
2022/09/06 01:48:48;;;;;;;5.05;4.38;;;19.80;97.40;;;;;;5098418;28;21781;-53
2022/09/06 01:51:22;;;;;;;;;;;19.80;97.40;;;;;;5100284;28;20493;-53
2022/09/06 01:54:23;;;;;;;6.97;4.07;;;19.70;97.60;;;;;;5102706;28;20006;-51
2022/09/06 01:56:56;;;;;;;4.75;4.25;;;19.70;97.40;;;;;;5099774;28;20035;-54
2022/09/06 01:59:31;;;;;;;5.82;4.18;;;19.70;97.70;;;;;;5099826;28;20043;-51
2022/09/06 02:02:08;;;;;;;5.78;4.07;;;19.70;97.70;;;;;;5097849;28;20428;-52
2022/09/06 02:04:48;;;;;;;7.15;4.50;;;19.70;97.80;;;;;;5098778;28;20040;-53
2022/09/06 02:07:20;;;;;;;4.68;4.28;;;19.70;97.90;;;;;;5101571;28;20059;-51
2022/09/06 02:09:52;;;;;;;6.68;4.55;;;19.60;97.90;;;;;;5097864;28;20117;-54
2022/09/06 02:12:20;;;;;;;4.57;4.20;;;19.60;97.80;;;;;;5097385;28;20044;-51
2022/09/06 02:14:55;;;;;;;6.88;4.25;;;19.60;98.00;;;;;;5098940;28;20047;-50
2022/09/06 02:17:31;;;;;;;4.68;4.13;;;19.60;98.50;;;;;;5105933;28;20040;-54
2022/09/06 02:19:59;;;;;;;4.95;4.30;;;19.60;98.50;;;;;;5102196;28;20052;-50
2022/09/06 02:22:29;;;;;;;5.53;4.53;;;19.50;98.40;;;;;;5101077;28;20477;-55
2022/09/06 02:24:57;;;;;;;6.22;4.53;;;19.50;98.70;;;;;;5102493;28;20056;-52
2022/09/06 02:27:23;;;;;;;5.82;4.82;;;19.50;98.90;;;;;;5106012;28;20063;-53
2022/09/06 02:29:48;;;;;;;5.47;4.55;;;19.40;99.30;;;;;;5104626;28;20074;-52
2022/09/06 02:32:21;;;;;;;7.65;4.90;;;19.40;99.10;;;;;;5107562;28;20039;-49
2022/09/06 02:34:48;;;;;;;5.35;4.93;;;19.40;99.50;;;;;;5105085;28;20036;-51
2022/09/06 02:37:15;;;;;;;5.03;4.50;;;19.40;99.60;;;;;;5107105;28;20044;-51
2022/09/06 02:39:41;;;;;;;5.55;5.05;;;19.30;99.60;;;;;;5102846;28;20044;-50
2022/09/06 02:42:09;;;;;;;5.65;4.85;;;19.30;99.80;;;;;;5104403;28;20088;-48
2022/09/06 02:44:34;;;;;;;5.30;4.80;;;19.30;99.90;;;;;;5105736;28;22387;-48
2022/09/06 02:47:02;;;;;;;5.45;4.55;;;19.30;99.90;;;;;;5104717;28;20043;-55
2022/09/06 02:49:28;;;;;;;9.73;4.90;;;19.20;99.90;;;;;;5104704;28;20044;-52
2022/09/06 02:51:53;;;;;;;5.57;4.95;;;19.20;99.90;;;;;;5103286;28;20119;-52
2022/09/06 02:54:19;;;;;;;6.45;5.05;;;19.20;99.90;;;;;;5106722;28;20122;-54
2022/09/06 02:56:44;;;;;;;7.20;5.10;;;19.20;99.90;;;;;;5084917;28;20064;-50
2022/09/06 02:59:10;;;;;;;6.60;5.13;;;19.20;99.90;;;;;;5102442;28;20504;-54
2022/09/06 03:01:36;;;;;;;6.63;5.28;;;19.10;99.90;;;;;;5085797;28;20120;-51
2022/09/06 03:04:01;;;;;;;7.22;5.20;;;19.10;99.90;;;;;;5106389;28;20058;-49
2022/09/06 03:06:27;;;;;;;5.10;4.60;;;19.10;99.90;;;;;;5106593;28;20028;-51
2022/09/06 03:08:53;;;;;;;5.38;4.97;;;19.10;99.90;;;;;;5100768;28;20084;-51
2022/09/06 03:11:18;;;;;;;5.88;5.38;;;19.10;99.90;;;;;;5083697;28;20050;-52
2022/09/06 03:13:44;;;;;;;6.00;5.50;;;19.00;99.90;;;;;;5099199;28;20036;-51
2022/09/06 03:16:09;;;;;;;5.80;5.30;;;19.00;99.90;;;;;;5101451;28;20032;-49
2022/09/06 03:18:35;;;;;;;5.68;4.95;;;19.00;99.90;;;;;;5105270;28;20439;-51
2022/09/06 03:21:01;;;;;;;6.32;5.20;;;19.00;99.90;;;;;;5104603;28;20052;-52
2022/09/06 03:23:27;;;;;;;7.70;6.13;;;18.90;99.90;;;;;;5103361;28;20066;-53
2022/09/06 03:25:54;;;;;;;6.20;5.70;;;18.90;99.90;;;;;;5106805;28;20448;-51
2022/09/06 03:28:20;;;;;;;6.43;5.72;;;18.90;99.90;;;;;;5086800;28;20092;-52
2022/09/06 03:30:48;;;;;;;10.50;6.28;;;18.80;99.90;;;;;;5104030;28;20110;-51
2022/09/06 03:33:15;;;;;;;5.93;5.43;;;18.80;99.90;;;;;;5085745;28;20443;-52
2022/09/06 03:36:06;;;;;;;5.78;5.32;;;18.80;99.90;;;;;;5103956;28;20032;-51
2022/09/06 03:38:31;;;;;;;6.40;5.80;;;18.80;99.90;;;;;;5103498;28;20042;-50
2022/09/06 03:40:57;;;;;;;7.50;5.90;;;18.80;99.90;;;;;;5102736;28;20401;-52
2022/09/06 03:43:24;;;;;;;6.97;5.85;;;18.70;99.90;;;;;;5101588;28;20032;-52
2022/09/06 03:45:53;;;;;;;7.50;6.78;;;18.80;99.90;;;;;;5087624;28;20509;-50
2022/09/06 03:48:20;;;;;;;6.80;5.55;;;18.80;99.90;;;;;;5104176;28;20043;-52
2022/09/06 03:50:48;;;;;;;6.57;5.77;;;18.80;99.90;;;;;;5101609;28;20046;-53
2022/09/06 03:53:15;;;;;;;9.13;5.78;;;18.80;99.90;;;;;;5066866;28;20292;-49
2022/09/06 03:55:44;;;;;;;6.57;5.90;;;18.80;99.90;;;;;;5104585;28;20035;-51
2022/09/06 03:58:10;;;;;;;7.65;6.28;;;18.80;99.90;;;;;;5103265;28;20071;-53
2022/09/06 04:00:36;;;;;;;8.35;6.22;;;18.80;99.90;;;;;;5098972;28;20127;-52
2022/09/06 04:03:01;;;;;;;8.70;5.88;;;18.80;99.90;;;;;;5103443;28;20401;-54
2022/09/06 04:05:27;;;;;;;6.85;5.53;;;18.80;99.90;;;;;;5104232;28;20430;-49
2022/09/06 04:07:52;;;;;;;6.32;5.40;;;18.80;99.90;;;;;;5103787;28;20036;-48
2022/09/06 04:10:18;;;;;;;6.22;5.35;;;18.80;99.90;;;;;;5099432;28;20040;-52
2022/09/06 04:12:44;;;;;;;6.53;5.45;;;18.80;99.90;;;;;;5098314;28;20374;-51
2022/09/06 04:15:10;;;;;;;8.20;5.30;;;18.80;99.90;;;;;;5098264;28;20032;-48
2022/09/06 04:17:35;;;;;;;7.43;5.43;;;18.80;99.90;;;;;;5097964;28;20123;-51
2022/09/06 04:20:02;;;;;;;7.80;5.65;;;18.90;99.90;;;;;;5103149;28;20108;-51
2022/09/06 04:22:27;;;;;;;7.97;5.88;;;18.90;99.90;;;;;;5102252;28;20447;-49
2022/09/06 04:24:53;;;;;;;6.15;5.65;;;18.80;99.90;;;;;;5104730;28;20035;-48
2022/09/06 04:27:18;;;;;;;9.00;5.93;;;18.80;99.90;;;;;;5098999;28;20064;-50
2022/09/06 04:29:44;;;;;;;6.80;6.20;;;18.80;99.90;;;;;;5105871;28;20035;-51
2022/09/06 04:32:10;;;;;;;6.93;5.80;;;18.80;99.90;;;;;;5103098;28;20043;-48
2022/09/06 04:34:35;;;;;;;6.25;5.60;;;18.80;99.90;;;;;;5103058;28;20138;-49
2022/09/06 04:37:01;;;;;;;6.70;5.70;;;18.80;99.90;;;;;;5083633;28;20047;-50
2022/09/06 04:39:26;;;;;;;8.35;6.22;;;18.80;99.90;;;;;;5104925;28;20130;-48
2022/09/06 04:41:52;;;;;;;7.07;6.35;;;18.80;99.90;;;;;;5104023;28;20043;-50
2022/09/06 04:44:18;;;;;;;6.18;5.78;;;18.80;99.90;;;;;;5105641;28;20043;-47
2022/09/06 04:46:43;;;;;;;8.00;6.35;;;18.70;99.90;;;;;;5100693;28;20048;-49
2022/09/06 04:49:09;;;;;;;7.15;5.85;;;18.70;99.90;;;;;;5084176;28;20433;-49
2022/09/06 04:51:36;;;;;;;7.90;6.60;;;18.80;99.90;;;;;;5085788;28;20127;-48
2022/09/06 04:54:01;;;;;;;7.40;6.72;;;18.70;99.90;;;;;;5066747;28;20393;-48
2022/09/06 04:56:27;;;;;;;8.23;6.75;;;18.70;99.90;;;;;;5103408;28;20043;-53
2022/09/06 04:58:55;;;;;;;8.15;6.90;;;18.70;99.90;;;;;;5102659;28;20055;-53
2022/09/06 05:01:21;;;;;;;8.70;6.93;;;18.60;99.90;;;;;;5079048;28;20047;-54
2022/09/06 05:03:46;;;;;;;7.30;6.60;;;18.60;99.90;;;;;;5098248;28;20031;-54
2022/09/06 05:06:19;;;;;;;7.75;7.10;;;18.70;99.90;;;;;;5104109;28;20485;-50
2022/09/06 05:08:45;;;;;;;9.48;7.22;;;18.60;99.90;;;;;;5102153;28;20040;-52
2022/09/06 05:11:11;;;;;;;8.85;7.50;;;18.60;99.90;;;;;;5100160;28;20055;-52
2022/09/06 05:13:36;;;;;;;8.27;7.47;;;18.50;99.90;;;;;;5101805;28;20485;-51
2022/09/06 05:16:04;;;;;;;8.43;7.63;;;18.50;99.90;;;;;;5099390;28;20048;-56
2022/09/06 05:18:30;;;;;;;;;;;18.50;99.90;;;;;;5084433;28;20123;-52
2022/09/06 05:20:56;;;;;;;8.68;7.93;;;18.50;99.90;;;;;;5099557;28;20011;-50
2022/09/06 05:23:22;;;;;;;11.43;8.25;;;18.40;99.90;;;;;;5102192;28;20036;-49
2022/09/06 05:25:48;;;;;;;8.68;7.85;;;18.40;99.90;;;;;;5102377;28;20053;-54
2022/09/06 05:28:14;;;;;;;9.60;8.73;;;18.30;99.90;;;;;;5104191;28;20119;-51
2022/09/06 05:30:40;;;;;;;9.75;8.55;;;18.30;99.90;;;;;;5102480;28;20040;-49
2022/09/06 05:33:07;;;;;;;10.18;9.18;;;18.10;99.90;;;;;;5104747;28;20093;-48
2022/09/06 05:35:32;;;;;;;9.25;8.35;;;18.10;99.90;;;;;;5100946;28;20077;-49
2022/09/06 05:37:58;;;;;;;10.27;8.93;;;18.10;99.90;;;;;;5102287;28;20040;-51
2022/09/06 05:40:23;;;;;;;10.20;8.65;;;18.10;99.90;;;;;;5096932;28;20044;-50
2022/09/06 05:42:49;;;;;;;11.43;9.35;;;18.10;99.90;;;;;;5103329;28;20131;-51
2022/09/06 05:45:15;;;;;;;15.07;9.98;;;18.00;99.90;;;;;;5104767;28;20027;-54
2022/09/06 05:47:41;;;;;;;9.93;8.88;;;18.00;99.90;;;;;;5101494;28;20637;-50
2022/09/06 05:50:07;;;;;;;10.07;9.18;;;18.10;99.90;;;;;;5101912;28;20040;-49
2022/09/06 05:52:33;;;;;;;10.65;9.55;;;18.00;99.90;;;;;;5102140;28;20039;-53
2022/09/06 05:55:00;;;;;;;13.93;9.55;;;18.00;99.90;;;;;;5084874;28;20097;-53
2022/09/06 05:57:25;;;;;;;10.05;9.20;;;17.90;99.90;;;;;;5102815;28;20035;-49
2022/09/06 05:59:52;;;;;;;11.05;9.90;;;17.90;99.90;;;;;;5100019;28;21015;-50
2022/09/06 06:02:19;;;;;;;10.90;9.75;;;17.90;99.90;;;;;;5102365;28;20076;-49
2022/09/06 06:04:45;;;;;;;10.95;9.55;;;18.00;99.90;;;;;;5102338;28;20043;-50
2022/09/06 06:07:10;;;;;;;11.38;9.50;;;18.00;99.90;;;;;;5081453;28;20038;-51
2022/09/06 06:09:36;;;;;;;11.23;10.20;;;18.00;99.90;;;;;;5104158;28;21990;-54
2022/09/06 06:12:02;;;;;;;11.70;10.50;;;18.00;99.90;;;;;;5099973;28;20036;-50
2022/09/06 06:14:27;;;;;;;12.43;11.13;;;18.00;99.90;;;;;;5100391;28;20046;-51
2022/09/06 06:16:53;;;;;;;15.85;10.40;;;18.00;99.90;;;;;;5102458;28;20431;-51
2022/09/06 06:19:19;;;;;;;16.80;11.68;;;18.00;99.90;;;;;;5101350;28;20144;-53
2022/09/06 06:21:44;;;;;;;11.82;10.13;;;18.00;99.90;;;;;;5100717;28;20036;-54
2022/09/06 06:24:10;;;;;;;15.25;11.57;;;18.00;99.90;;;;;;5102785;28;20085;-53
2022/09/06 06:26:36;;;;;;;11.50;10.57;;;18.10;99.90;;;;;;5102027;28;20400;-51
2022/09/06 06:29:04;;;;;;;12.77;11.50;;;18.10;99.90;;;;;;5102260;28;20035;-54
2022/09/06 06:31:31;;;;;;;12.93;11.10;;;18.00;99.90;;;;;;5100592;28;20116;-54
2022/09/06 06:33:57;;;;;;;12.18;11.02;;;18.10;99.90;;;;;;5100567;28;20032;-51
2022/09/06 06:36:25;;;;;;;15.55;11.77;;;18.10;99.90;;;;;;5104546;28;20082;-52
2022/09/06 06:38:53;;;;;;;17.42;12.02;;;18.10;99.90;;;;;;5082348;28;20529;-55
2022/09/06 06:41:22;;;;;;;12.32;11.10;;;18.10;99.90;;;;;;5086278;28;20047;-52
2022/09/06 06:43:51;;;;;;;12.77;11.48;;;18.10;99.90;;;;;;5085248;28;20497;-51
2022/09/06 06:46:17;;;;;;;12.90;11.80;;;18.20;99.90;;;;;;5100639;28;20075;-56
2022/09/06 06:48:44;;;;;;;13.40;12.05;;;18.20;99.90;;;;;;5085068;28;20185;-54
2022/09/06 06:51:12;;;;;;;12.93;11.73;;;18.20;99.90;;;;;;5100833;28;20535;-53
2022/09/06 06:53:38;;;;;;;;;;;18.30;99.90;;;;;;5099746;28;20825;-52
2022/09/06 06:56:20;;;;;;;12.60;11.60;;;18.30;99.90;;;;;;5103529;28;19923;-55
2022/09/06 06:58:48;;;;;;;12.25;11.15;;;18.30;99.90;;;;;;5101660;28;20036;-54
2022/09/06 07:01:15;;;;;;;11.95;10.68;;;18.40;99.90;;;;;;5098295;28;20035;-52
2022/09/06 07:03:40;;;;;;;13.45;10.48;;;18.50;99.90;;;;;;5104414;28;20035;-54
2022/09/06 07:06:06;;;;;;;12.63;11.07;;;18.60;99.90;;;;;;5105785;28;20051;-54
2022/09/06 07:08:33;;;;;;;11.77;10.65;;;18.70;99.90;;;;;;5104390;28;20485;-55
2022/09/06 07:10:59;;;;;;;12.45;11.32;;;18.70;99.90;;;;;;5104202;28;20051;-49
2022/09/06 07:13:24;;;;;;;11.43;10.32;;;18.70;99.90;;;;;;5104930;28;20359;-53
2022/09/06 07:15:50;;;;;;;12.38;11.25;;;18.70;99.90;;;;;;5104904;28;20028;-49
2022/09/06 07:18:16;;;;;;;10.75;9.75;;;18.70;99.90;;;;;;5105119;28;20474;-50
2022/09/06 07:20:42;;;;;;;11.27;9.88;;;18.70;99.90;;;;;;5103719;28;20081;-51
2022/09/06 07:23:08;;;;;;;11.40;10.32;;;19.00;99.90;;;;;;5086348;28;20035;-54
2022/09/06 07:25:34;;;;;;;11.73;10.60;;;18.90;99.90;;;;;;5100645;28;20364;-51
2022/09/06 07:28:02;;;;;;;11.45;10.35;;;18.90;99.90;;;;;;5104128;28;20431;-54
2022/09/06 07:30:30;;;;;;;11.82;10.63;;;18.90;99.90;;;;;;5105373;28;20758;-50
2022/09/06 07:32:57;;;;;;;11.77;10.77;;;18.80;99.90;;;;;;5097307;28;20556;-52
2022/09/06 07:35:25;;;;;;;12.63;11.13;;;18.90;99.90;;;;;;5075457;28;20058;-51
2022/09/06 07:37:55;;;;;;;13.38;11.75;;;18.90;99.90;;;;;;5077853;28;20038;-51
2022/09/06 07:40:22;;;;;;;12.25;11.30;;;19.00;99.90;;;;;;5099749;28;20520;-50
2022/09/06 07:42:47;;;;;;;12.15;11.05;;;19.10;99.90;;;;;;5103471;28;20455;-51
2022/09/06 07:45:13;;;;;;;12.95;11.77;;;19.10;99.90;;;;;;5085664;28;20056;-55
2022/09/06 07:47:39;;;;;;;13.27;11.85;;;19.10;99.90;;;;;;5107105;28;20482;-53
2022/09/06 07:50:05;;;;;;;13.02;11.82;;;19.20;99.90;;;;;;5106851;28;20063;-55
2022/09/06 07:52:30;;;;;;;12.93;11.73;;;19.20;99.90;;;;;;5101200;28;21549;-52
2022/09/06 07:54:56;;;;;;;13.38;12.10;;;19.40;99.90;;;;;;5100587;28;20035;-51
2022/09/06 07:57:22;;;;;;;12.40;11.50;;;19.30;99.90;;;;;;5081292;28;20038;-52
2022/09/06 07:59:48;;;;;;;14.18;12.80;;;19.50;99.90;;;;;;5082314;28;20126;-52
2022/09/06 08:02:15;;;;;;;13.15;11.93;;;19.90;99.90;;;;;;5077530;28;20053;-52
2022/09/06 08:04:41;;;;;;;13.90;12.45;;;20.30;99.90;;;;;;5093680;28;20072;-53
2022/09/06 08:07:07;;;;;;;13.48;12.07;;;20.50;99.90;;;;;;5095119;28;20036;-52
2022/09/06 08:09:33;;;;;;;12.45;11.45;;;20.70;99.90;;;;;;5097996;28;20291;-55
2022/09/06 08:12:00;;;;;;;12.60;11.50;;;20.60;99.90;;;;;;5104180;28;20382;-48
2022/09/06 08:14:25;;;;;;;12.98;11.77;;;20.60;99.90;;;;;;5102760;28;20040;-54
2022/09/06 08:16:51;;;;;;;13.55;12.45;;;20.70;99.90;;;;;;5106051;28;20614;-51
2022/09/06 08:19:17;;;;;;;12.88;11.60;;;;;;;;;;5106509;28;20050;-52
2022/09/06 08:21:43;;;;;;;13.07;11.98;;;20.90;99.90;;;;;;5106787;28;20047;-54
2022/09/06 08:24:09;;;;;;;14.23;12.93;;;21.20;99.90;;;;;;5103609;28;20043;-48
2022/09/06 08:26:41;;;;;;;13.07;12.07;;;21.40;99.90;;;;;;5106519;28;20079;-51
2022/09/06 08:29:09;;;;;;;14.13;12.98;;;21.80;99.90;;;;;;5108899;28;20043;-48
2022/09/06 08:31:37;;;;;;;17.23;12.52;;;22.10;99.90;;;;;;5107269;28;20032;-50
2022/09/06 08:34:03;;;;;;;12.52;11.32;;;22.30;99.90;;;;;;5105249;28;20048;-52
2022/09/06 08:36:30;;;;;;;12.85;11.73;;;22.50;99.90;;;;;;5085637;28;20144;-49
2022/09/06 08:38:56;;;;;;;12.32;10.98;;;22.80;99.90;;;;;;5087444;28;20290;-54
2022/09/06 08:41:22;;;;;;;11.67;10.50;;;23.20;99.90;;;;;;5106175;28;20032;-48
2022/09/06 08:43:57;;;;;;;11.32;10.30;;;;;;;;;;5105599;28;20302;-50
2022/09/06 08:46:31;;;;;;;10.75;9.25;;;23.50;99.90;;;;;;5102275;28;20043;-53
2022/09/06 08:48:56;;;;;;;10.32;9.38;;;23.70;99.90;;;;;;5103098;28;20413;-48
2022/09/06 08:51:51;;;;;;;8.70;8.00;;;23.90;99.90;;;;;;5095441;28;20036;-50
2022/09/06 08:54:28;;;;;;;9.13;8.13;;;24.10;99.90;;;;;;5092876;28;20047;-48
2022/09/06 08:57:19;;;;;;;9.60;8.00;;;24.20;99.90;;;;;;5105062;28;20050;-53
2022/09/06 08:59:44;;;;;;;8.57;7.60;;;24.20;99.90;;;;;;5101511;28;20052;-52
2022/09/06 09:02:16;;;;;;;10.57;9.57;;;24.30;99.90;;;;;;5101033;28;20063;-51
2022/09/06 09:04:51;;;;;;;11.20;9.35;;;24.30;99.90;;;;;;5090813;28;20119;-50
2022/09/06 09:07:48;;;;;;;11.63;7.60;;;24.20;99.90;;;;;;5104071;28;20070;-53
2022/09/06 09:10:27;;;;;;;8.35;7.53;;;24.50;99.90;;;;;;5089626;28;20052;-49
2022/09/06 09:12:53;;;;;;;7.15;6.45;;;24.50;99.90;;;;;;5109012;28;20063;-50
2022/09/06 09:15:20;;;;;;;8.25;6.80;;;24.60;99.90;;;;;;5106378;28;20478;-52
2022/09/06 09:17:50;;;;;;;6.53;5.93;;;24.70;99.90;;;;;;5107177;28;20463;-48
2022/09/06 09:20:16;;;;;;;6.47;5.88;;;24.90;99.90;;;;;;5107672;28;20044;-51
2022/09/06 09:22:42;;;;;;;7.75;6.55;;;24.90;99.90;;;;;;5106260;28;20054;-49
2022/09/06 09:25:16;;;;;;;7.20;5.88;;;24.90;99.90;;;;;;5105304;28;20047;-49
2022/09/06 09:27:43;;;;;;;6.30;5.70;;;25.10;99.90;;;;;;5108685;28;20040;-50
2022/09/06 09:30:10;;;;;;;6.07;5.68;;;25.10;99.90;;;;;;5105431;28;20039;-50
2022/09/06 09:32:43;;;;;;;6.30;5.80;;;25.30;99.90;;;;;;5106640;28;20047;-49
2022/09/06 09:35:31;;;;;;;7.20;5.63;;;25.60;99.90;;;;;;5104064;28;20044;-50
2022/09/06 09:37:59;;;;;;;5.80;5.30;;;25.60;99.90;;;;;;5107345;28;20047;-53
2022/09/06 09:40:25;;;;;;;6.20;5.60;;;25.70;99.90;;;;;;5087332;28;20032;-50
2022/09/06 09:42:53;;;;;;;6.70;6.20;;;25.80;99.90;;;;;;5087482;28;20085;-50
2022/09/06 09:45:19;;;;;;;6.28;5.68;;;25.90;99.90;;;;;;5105609;28;20486;-50
2022/09/06 09:47:46;;;;;;;6.07;5.53;;;25.80;99.90;;;;;;5108778;28;20058;-54
2022/09/06 09:50:30;;;;;;;6.05;5.22;;;25.80;99.90;;;;;;5109080;28;20541;-53
2022/09/06 09:53:10;;;;;;;5.53;4.90;;;26.00;99.90;;;;;;5106086;28;20039;-50
2022/09/06 09:55:36;;;;;;;4.50;4.10;;;26.20;99.90;;;;;;5101672;28;20140;-51
2022/09/06 09:58:02;;;;;;;4.68;4.00;;;26.20;99.90;;;;;;5105206;28;20140;-50
2022/09/06 10:00:41;;;;;;;4.18;3.70;;;26.00;99.90;;;;;;5103299;28;20065;-51
2022/09/06 10:03:16;;;;;;;4.90;4.40;;;26.20;99.90;;;;;;5088808;28;20471;-49
2022/09/06 10:05:57;;;;;;;5.55;4.90;;;26.10;99.90;;;;;;5089182;28;20504;-50
2022/09/06 10:08:25;;;;;;;5.15;4.20;;;26.00;99.90;;;;;;5102216;28;20043;-50
2022/09/06 10:10:51;;;;;;;5.13;4.63;;;26.40;99.90;;;;;;5106399;28;20048;-49
2022/09/06 10:13:23;;;;;;;5.05;4.55;;;26.40;99.70;;;;;;5093531;28;20035;-51
2022/09/06 10:15:50;;;;;;;4.10;3.80;;;26.40;99.40;;;;;;5109394;28;20168;-50
2022/09/06 10:18:31;;;;;;;4.65;4.20;;;26.50;99.70;;;;;;5106878;28;20122;-49
2022/09/06 10:21:12;;;;;;;4.85;4.43;;;26.60;99.40;;;;;;5105633;28;20043;-50
2022/09/06 10:23:56;;;;;;;4.70;4.00;;;26.40;99.00;;;;;;5098884;28;20047;-52
2022/09/06 10:26:25;;;;;;;5.88;4.60;;;26.60;99.60;;;;;;5105490;28;20048;-54
2022/09/06 10:29:04;;;;;;;4.93;4.10;;;26.80;98.70;;;;;;5105427;28;20043;-52
2022/09/06 10:31:49;;;;;;;4.55;4.25;;;26.50;98.30;;;;;;5103292;28;20048;-52
2022/09/06 10:34:38;;;;;;;4.53;4.10;;;26.60;98.00;;;;;;5107125;28;20534;-53
2022/09/06 10:37:15;;;;;;;4.25;3.67;;;26.90;99.00;;;;;;5108092;28;20043;-54
2022/09/06 10:39:55;;;;;;;4.15;3.85;;;26.90;97.50;;;;;;5109395;28;20077;-52
2022/09/06 10:42:26;;;;;;;5.80;3.33;;;26.90;97.50;;;;;;5091044;28;20040;-53
2022/09/06 10:45:26;;;;;;;3.17;2.88;;;27.00;97.40;;;;;;5107440;28;20035;-53
2022/09/06 10:48:12;;;;;;;4.57;3.53;;;27.30;98.00;;;;;;5109606;28;20420;-54
2022/09/06 10:50:44;;;;;;;4.35;4.05;;;27.30;97.30;;;;;;5108966;28;20543;-51
2022/09/06 10:53:39;;;;;;;5.97;3.85;;;27.40;96.70;;;;;;5108562;28;20039;-50
2022/09/06 10:56:14;;;;;;;5.50;4.60;;;27.50;97.00;;;;;;5027024;28;20096;-53
2022/09/06 10:59:21;;;;;;;5.88;5.38;;;27.40;95.70;;;;;;5013626;28;20099;-53
2022/09/06 11:02:01;;;;;;;6.07;4.10;;;27.30;96.20;;;;;;5022679;28;20049;-52
2022/09/06 11:04:38;;;;;;;5.03;3.78;;;27.50;96.70;;;;;;5015545;28;20080;-50
2022/09/06 11:07:13;;;;;;;4.78;3.67;;;27.50;96.60;;;;;;5012501;28;20666;-51
2022/09/06 11:09:50;;;;;;;4.93;3.70;;;27.60;96.10;;;;;;5031150;28;20052;-52
2022/09/06 11:12:27;;;;;;;3.85;3.45;;;27.70;95.60;;;;;;5023550;28;20053;-50
2022/09/06 11:14:52;;;;;;;3.90;3.55;;;27.70;95.50;;;;;;5027118;28;20116;-53
2022/09/06 11:17:42;;;;;;;5.07;2.80;;;27.70;95.00;;;;;;5022548;28;20211;-54
2022/09/06 11:20:23;;;;;;;4.93;2.80;;;27.90;94.60;;;;;;5015425;28;20053;-52
2022/09/06 11:23:12;;;;;;;4.95;3.38;;;27.90;94.30;;;;;;5024637;28;20621;-49
2022/09/06 11:25:44;;;;;;;4.10;3.70;;;27.80;94.60;;;;;;5029903;28;20377;-48
2022/09/06 11:28:15;;;;;;;3.75;3.45;;;27.90;94.90;;;;;;5005182;28;20096;-49
2022/09/06 11:30:55;;;;;;;3.97;3.58;;;27.90;93.90;;;;;;5028179;28;20049;-51
2022/09/06 11:33:29;;;;;;;3.08;2.88;;;27.90;94.00;;;;;;5077733;28;20367;-51
2022/09/06 11:36:15;;;;;;;2.90;2.70;;;28.00;94.30;;;;;;5107965;28;20074;-51
2022/09/06 11:38:41;;;;;;;4.40;4.10;;;27.90;94.00;;;;;;5107264;28;20039;-49
2022/09/06 11:41:15;;;;;;;4.53;3.53;;;28.00;93.80;;;;;;5107668;28;20630;-49
2022/09/06 11:43:44;;;;;;;3.35;3.10;;;28.10;93.30;;;;;;5073127;28;20039;-56
2022/09/06 11:46:09;;;;;;;4.35;3.40;;;28.10;93.00;;;;;;5108898;28;20036;-51
2022/09/06 11:48:48;;;;;;;6.90;2.97;;;28.10;93.30;;;;;;5108819;28;20100;-48
2022/09/06 11:51:40;;;;;;;3.67;3.10;;;28.20;93.00;;;;;;5108093;28;20139;-57
2022/09/06 11:54:44;;;;;;;3.20;2.88;;;28.10;92.80;;;;;;5090924;28;20104;-56
2022/09/06 11:57:15;;;;;;;4.38;2.78;;;28.10;92.40;;;;;;5096445;28;20059;-53
2022/09/06 12:00:05;;;;;;;4.18;2.97;;;28.20;92.50;;;;;;5105751;28;20040;-53
2022/09/06 12:02:32;;;;;;;4.95;2.78;;;28.30;92.30;;;;;;5104701;28;20052;-53
2022/09/06 12:04:58;;;;;;;4.07;2.42;;;28.40;92.70;;;;;;5107057;28;20394;-48
2022/09/06 12:07:24;;;;;;;6.60;2.10;;;28.40;92.10;;;;;;5070920;28;20054;-51
2022/09/06 12:09:50;;;;;;;3.07;2.33;;;28.50;92.00;;;;;;5105257;28;20051;-52
2022/09/06 12:12:43;;;;;;;2.42;2.28;;;28.50;91.40;;;;;;5107668;28;20518;-53
2022/09/06 12:15:30;;;;;;;2.35;2.15;;;28.50;91.10;;;;;;5105088;28;20108;-53
2022/09/06 12:17:57;;;;;;;4.07;2.00;;;28.50;90.80;;;;;;5101253;28;20047;-50
2022/09/06 12:20:49;;;;;;;2.85;2.17;;;28.50;90.40;;;;;;5102700;28;20691;-50
2022/09/06 12:23:33;;;;;;;2.50;2.28;;;28.70;90.80;;;;;;5107805;28;20044;-50
2022/09/06 12:26:01;;;;;;;2.40;2.00;;;28.80;89.90;;;;;;5107580;28;20044;-50
2022/09/06 12:28:31;;;;;;;3.33;2.10;;;28.90;90.60;;;;;;5089998;28;20043;-51
2022/09/06 12:30:57;;;;;;;4.53;2.15;;;28.90;90.50;;;;;;5107712;28;20047;-50
2022/09/06 12:33:35;;;;;;;2.33;2.03;;;29.00;90.50;;;;;;5107416;28;20055;-52
2022/09/06 12:36:18;;;;;;;2.53;2.33;;;29.00;90.20;;;;;;5106016;28;20044;-50
2022/09/06 12:39:00;;;;;;;2.55;1.90;;;29.20;90.40;;;;;;5086151;28;20038;-51
2022/09/06 12:41:35;;;;;;;2.10;1.90;;;29.30;90.40;;;;;;5104830;28;20504;-51
2022/09/06 12:44:04;;;;;;;3.15;1.75;;;29.30;88.60;;;;;;5103203;28;20417;-49
2022/09/06 12:46:31;;;;;;;1.73;1.63;;;29.30;87.70;;;;;;5107538;28;20118;-49
2022/09/06 12:49:09;;;;;;;3.42;1.90;;;29.30;87.60;;;;;;5110959;28;20043;-51
2022/09/06 12:51:37;;;;;;;1.80;1.70;;;29.50;87.90;;;;;;5104804;28;20055;-51
2022/09/06 12:54:24;;;;;;;4.50;2.00;;;29.40;87.20;;;;;;5106345;28;20051;-50
2022/09/06 12:56:51;;;;;;;2.95;2.40;;;29.40;86.60;;;;;;5099415;28;20104;-54
2022/09/06 12:59:18;;;;;;;;;;;29.30;86.90;;;;;;5106773;28;20039;-54
2022/09/06 13:02:11;;;;;;;1.85;1.75;;;29.10;88.20;;;;;;5106544;28;19920;-50